Time;durP1;ratioP1;P1;durP2;ratioP2;P2;SDS_P1;SDS_P2;PMS_P1;PMS_P2;Temp;Humidity;BMP_temperature;BMP_pressure;BME280_temperature;BME280_humidity;BME280_pressure;Samples;Min_cycle;Max_cycle;Signal;HPM_P1;HPM_P2
2023/02/22 00:00:18;;;;;;;20.05;8.77;;;;;;;;;;5021808;28;20025;-85
2023/02/22 00:03:04;;;;;;;17.67;9.05;;;;;;;;;;5026454;28;20046;-86
2023/02/22 00:05:30;;;;;;;21.27;9.40;;;;;;;;;;5021983;28;20033;-84
2023/02/22 00:07:56;;;;;;;20.50;9.90;;;;;;;;;;5028064;28;20478;-85
2023/02/22 00:10:23;;;;;;;21.75;10.27;;;;;;;;;;5029528;28;20017;-86
2023/02/22 00:12:51;;;;;;;21.10;10.23;;;;;;;;;;5022429;28;20030;-82
2023/02/22 00:15:18;;;;;;;18.25;9.15;;;;;;;;;;5020007;28;20032;-86
2023/02/22 00:17:44;;;;;;;20.30;9.60;;;;;;;;;;5026588;28;20452;-84
2023/02/22 00:20:13;;;;;;;19.70;9.32;;;;;;;;;;5027278;28;20116;-85
2023/02/22 00:22:45;;;;;;;22.05;9.90;;;;;;;;;;5019390;28;20030;-85
2023/02/22 00:25:12;;;;;;;22.38;10.35;;;;;;;;;;5022157;28;20339;-82
2023/02/22 00:27:37;;;;;;;19.90;9.60;;;;;;;;;;5019787;28;20025;-85
2023/02/22 00:30:04;;;;;;;20.42;9.95;;;;;;;;;;5028586;28;20087;-86
2023/02/22 00:32:30;;;;;;;20.02;9.25;;;;;;;;;;5031487;28;20126;-86
2023/02/22 00:34:55;;;;;;;20.50;9.93;;;;;;;;;;5028085;28;20537;-84
2023/02/22 00:37:21;;;;;;;18.88;9.45;;;;;;;;;;5021163;28;20385;-85
2023/02/22 00:39:48;;;;;;;20.73;9.85;;;;;;;;;;5026614;28;20682;-86
2023/02/22 00:42:14;;;;;;;21.20;10.20;;;;;;;;;;5024259;28;20030;-84
2023/02/22 00:44:39;;;;;;;21.58;9.90;;;;;;;;;;5034115;28;20038;-86
2023/02/22 00:47:05;;;;;;;20.90;9.90;;;;;;;;;;5007541;28;20048;-85
2023/02/22 00:49:30;;;;;;;19.88;9.63;;;;;;;;;;5025635;28;20087;-83
2023/02/22 00:51:56;;;;;;;21.27;9.82;;;;;;;;;;5024715;28;20108;-85
2023/02/22 00:54:21;;;;;;;21.55;10.05;;;;;;;;;;5026227;28;20025;-86
2023/02/22 00:56:49;;;;;;;22.02;10.00;;;;;;;;;;5018221;28;20390;-86
2023/02/22 00:59:15;;;;;;;20.27;9.50;;;;;;;;;;5022532;28;20025;-86
2023/02/22 01:01:41;;;;;;;21.77;9.98;;;;;;;;;;5030708;28;20025;-85
2023/02/22 01:04:08;;;;;;;20.92;9.65;;;;;;;;;;5029376;28;20031;-86
2023/02/22 01:06:34;;;;;;;22.30;9.82;;;;;;;;;;5023188;28;20350;-86
2023/02/22 01:09:01;;;;;;;19.27;9.23;;;;;;;;;;5020002;28;20478;-83
2023/02/22 01:11:26;;;;;;;20.90;10.20;;;;;;;;;;5028431;28;20051;-85
2023/02/22 01:13:56;;;;;;;21.15;9.52;;;;;;;;;;5024394;28;20037;-81
2023/02/22 01:16:22;;;;;;;20.52;9.68;;;;;;;;;;5022375;28;20773;-85
2023/02/22 01:18:47;;;;;;;20.48;10.10;;;;;;;;;;5029063;28;20121;-86
2023/02/22 01:21:13;;;;;;;21.25;10.35;;;;;;;;;;5028860;28;20025;-84
2023/02/22 01:23:38;;;;;;;22.80;10.85;;;;;;;;;;5025753;28;20453;-85
2023/02/22 01:26:04;;;;;;;22.02;9.95;;;;;;;;;;5031574;28;20470;-85
2023/02/22 01:28:33;;;;;;;21.40;9.73;;;;;;;;;;5027105;28;20033;-84
2023/02/22 01:31:00;;;;;;;23.95;10.85;;;;;;;;;;5026083;28;20021;-86
2023/02/22 01:33:25;;;;;;;24.55;10.75;;;;;;;;;;5024454;28;20021;-84
2023/02/22 01:35:51;;;;;;;21.05;10.65;;;;;;;;;;5023182;28;20712;-85
2023/02/22 01:38:17;;;;;;;20.10;9.90;;;;;;;;;;5025777;28;20057;-84
2023/02/22 01:40:46;;;;;;;20.83;9.88;;;;;;;;;;5024709;28;20465;-86
2023/02/22 01:43:19;;;;;;;24.40;10.27;;;;;;;;;;5026925;28;20545;-86
2023/02/22 01:46:03;;;;;;;;;;;;;;;;;;5021296;28;20159;-86
2023/02/22 01:48:43;;;;;;;21.60;9.05;;;;;;;;;;5021616;28;19928;-85
2023/02/22 01:51:16;;;;;;;20.98;9.25;;;;;;;;;;5023574;28;20104;-83
2023/02/22 01:53:51;;;;;;;20.00;8.35;;;;;;;;;;5023781;28;20026;-85
2023/02/22 01:56:19;;;;;;;20.65;9.52;;;;;;;;;;5018457;28;20112;-85
2023/02/22 01:58:49;;;;;;;24.20;10.57;;;;;;;;;;5022350;28;20026;-86
2023/02/22 02:03:53;;;;;;;23.08;9.55;;;;;;;;;;5920536;22;20594;-83
2023/02/22 02:06:19;;;;;;;24.25;10.52;;;;;;;;;;5047429;28;20028;-83
2023/02/22 02:09:09;;;;;;;26.50;10.27;;;;;;;;;;5020787;28;20484;-83
2023/02/22 02:11:39;;;;;;;21.23;9.57;;;;;;;;;;5038641;28;20423;-84
2023/02/22 02:14:06;;;;;;;24.85;9.63;;;;;;;;;;5030692;28;20037;-82
2023/02/22 02:16:39;;;;;;;22.50;9.95;;;;;;;;;;5045640;28;20025;-84
2023/02/22 02:19:11;;;;;;;22.35;10.13;;;;;;;;;;5047334;28;20021;-83
2023/02/22 02:21:40;;;;;;;25.08;10.23;;;;;;;;;;5045617;28;20492;-83
2023/02/22 02:24:49;;;;;;;25.58;10.35;;;;;;;;;;5032137;28;20387;-84
2023/02/22 02:27:45;;;;;;;23.20;10.02;;;;;;;;;;5027058;28;20025;-84
2023/02/22 02:30:41;;;;;;;22.27;10.40;;;;;;;;;;5046004;28;20017;-83
2023/02/22 02:33:19;;;;;;;22.25;10.02;;;;;;;;;;5043696;28;20468;-83
2023/02/22 02:36:00;;;;;;;23.40;10.32;;;;;;;;;;5032018;28;20693;-83
2023/02/22 02:38:53;;;;;;;31.33;11.73;;;;;;;;;;5044636;28;20100;-84
2023/02/22 02:41:55;;;;;;;25.00;10.48;;;;;;;;;;5028003;28;20037;-83
2023/02/22 02:44:26;;;;;;;25.20;11.13;;;;;;;;;;4988847;28;20065;-84
2023/02/22 02:46:58;;;;;;;27.92;10.93;;;;;;;;;;5032420;28;20114;-84
2023/02/22 02:49:33;;;;;;;26.13;11.52;;;;;;;;;;5044329;28;20024;-84
2023/02/22 02:52:00;;;;;;;25.38;10.65;;;;;;;;;;5027150;28;20027;-83
2023/02/22 02:54:26;;;;;;;27.75;11.15;;;;;;;;;;5028326;28;20220;-83
2023/02/22 02:56:52;;;;;;;26.52;11.18;;;;;;;;;;5019610;28;20037;-83
2023/02/22 02:59:28;;;;;;;28.63;12.40;;;;;;;;;;5026767;28;20020;-83
2023/02/22 03:02:06;;;;;;;26.55;11.60;;;;;;;;;;5040797;28;20036;-84
2023/02/22 03:04:47;;;;;;;28.88;11.30;;;;;;;;;;5023541;28;20033;-82
2023/02/22 03:07:23;;;;;;;25.83;11.18;;;;;;;;;;5028277;28;20472;-84
2023/02/22 03:09:57;;;;;;;26.58;11.38;;;;;;;;;;5029106;28;20027;-84
2023/02/22 03:12:47;;;;;;;25.80;11.00;;;;;;;;;;5042186;28;20094;-84
2023/02/22 03:15:31;;;;;;;26.75;10.65;;;;;;;;;;5021817;28;20071;-83
2023/02/22 03:18:07;;;;;;;29.60;11.38;;;;;;;;;;5022822;28;20031;-83
2023/02/22 03:20:51;;;;;;;24.42;11.98;;;;;;;;;;5045361;28;20037;-84
2023/02/22 03:23:39;;;;;;;29.67;11.10;;;;;;;;;;5039629;28;20090;-84
2023/02/22 03:26:10;;;;;;;32.30;12.75;;;;;;;;;;5022818;28;20021;-82
2023/02/22 03:28:39;;;;;;;33.58;12.93;;;;;;;;;;5041567;28;20138;-84
2023/02/22 03:31:13;;;;;;;30.83;13.07;;;;;;;;;;5042730;28;20075;-82
2023/02/22 03:33:46;;;;;;;26.35;12.13;;;;;;;;;;5021898;28;20031;-82
2023/02/22 03:36:23;;;;;;;29.45;12.13;;;;;;;;;;5040900;28;20036;-84
2023/02/22 03:38:54;;;;;;;30.23;11.73;;;;;;;;;;5039381;28;20025;-84
2023/02/22 03:41:25;;;;;;;30.67;11.88;;;;;;;;;;5029559;28;20037;-83
2023/02/22 03:44:13;;;;;;;35.65;14.13;;;;;;;;;;5021796;28;20028;-83
2023/02/22 03:46:41;;;;;;;31.98;13.52;;;;;;;;;;5033606;28;20025;-83
2023/02/22 03:49:23;;;;;;;33.60;13.15;;;;;;;;;;5026628;28;20048;-83
2023/02/22 03:51:49;;;;;;;29.83;11.68;;;;;;;;;;5043495;28;20484;-84
2023/02/22 03:54:15;;;;;;;31.70;13.05;;;;;;;;;;5014873;28;20025;-83
2023/02/22 03:56:57;;;;;;;38.17;13.90;;;;;;;;;;5040287;28;20059;-83
2023/02/22 03:59:26;;;;;;;32.92;13.77;;;;;;;;;;5024428;28;20025;-83
2023/02/22 04:01:52;;;;;;;31.02;12.55;;;;;;;;;;5019635;28;20033;-83
2023/02/22 04:04:20;;;;;;;28.83;12.60;;;;;;;;;;5024532;28;20033;-84
2023/02/22 04:06:46;;;;;;;31.92;13.13;;;;;;;;;;5037024;28;20052;-83
2023/02/22 04:09:13;;;;;;;30.42;12.98;;;;;;;;;;5022649;28;20579;-84
2023/02/22 04:11:38;;;;;;;32.85;13.55;;;;;;;;;;5035383;28;20036;-82
2023/02/22 04:14:04;;;;;;;27.58;12.75;;;;;;;;;;5007155;28;20029;-82
2023/02/22 04:16:29;;;;;;;27.85;11.90;;;;;;;;;;5018823;28;20041;-83
2023/02/22 04:18:55;;;;;;;31.15;12.15;;;;;;;;;;5025547;28;20044;-83
2023/02/22 04:21:20;;;;;;;31.83;12.18;;;;;;;;;;5023876;28;20025;-83
2023/02/22 04:23:45;;;;;;;30.70;13.20;;;;;;;;;;5022387;28;20078;-83
2023/02/22 04:26:11;;;;;;;29.02;12.00;;;;;;;;;;5034409;28;20063;-83
2023/02/22 04:28:36;;;;;;;33.33;12.77;;;;;;;;;;5033977;28;20484;-83
2023/02/22 04:31:02;;;;;;;27.35;11.50;;;;;;;;;;5030366;28;20035;-83
2023/02/22 04:33:27;;;;;;;29.98;12.48;;;;;;;;;;5042496;28;20380;-83
2023/02/22 04:35:53;;;;;;;30.80;11.98;;;;;;;;;;5040468;28;20480;-84
2023/02/22 04:38:18;;;;;;;30.50;12.25;;;;;;;;;;5026853;28;20036;-83
2023/02/22 04:40:44;;;;;;;27.65;11.13;;;;;;;;;;5045090;28;20017;-83
2023/02/22 04:43:09;;;;;;;29.75;11.95;;;;;;;;;;5027920;28;20092;-84
2023/02/22 04:45:35;;;;;;;31.75;12.65;;;;;;;;;;5027651;28;20041;-83
2023/02/22 04:48:00;;;;;;;30.73;12.65;;;;;;;;;;5055567;28;20051;-83
2023/02/22 04:50:27;;;;;;;31.00;12.45;;;;;;;;;;5048940;28;20464;-83
2023/02/22 04:52:52;;;;;;;26.65;11.63;;;;;;;;;;5033940;28;20416;-83
2023/02/22 04:55:18;;;;;;;25.08;10.68;;;;;;;;;;5036040;28;20025;-83
2023/02/22 04:57:43;;;;;;;25.45;10.98;;;;;;;;;;5030770;28;20028;-82
2023/02/22 05:00:09;;;;;;;25.38;10.98;;;;;;;;;;5033657;28;20039;-83
2023/02/22 05:02:38;;;;;;;26.95;11.15;;;;;;;;;;5039259;28;20115;-83
2023/02/22 05:05:04;;;;;;;25.55;12.02;;;;;;;;;;5049402;28;20029;-82
2023/02/22 05:07:29;;;;;;;23.58;10.82;;;;;;;;;;5030654;28;20039;-82
2023/02/22 05:09:54;;;;;;;23.45;10.60;;;;;;;;;;5048224;28;20048;-84
2023/02/22 05:12:20;;;;;;;23.52;10.50;;;;;;;;;;5050533;28;20033;-83
2023/02/22 05:14:46;;;;;;;23.20;9.88;;;;;;;;;;5029108;28;20400;-83
2023/02/22 05:17:11;;;;;;;24.80;10.75;;;;;;;;;;5051688;28;20480;-83
2023/02/22 05:19:37;;;;;;;21.90;10.70;;;;;;;;;;5028619;28;20116;-82
2023/02/22 05:22:04;;;;;;;23.27;10.00;;;;;;;;;;5032150;28;20469;-83
2023/02/22 05:24:30;;;;;;;21.90;9.48;;;;;;;;;;5051383;28;20033;-83
2023/02/22 05:26:55;;;;;;;22.23;10.13;;;;;;;;;;5047069;28;20510;-83
2023/02/22 05:29:21;;;;;;;21.88;9.85;;;;;;;;;;5030301;28;20163;-83
2023/02/22 05:31:46;;;;;;;23.42;10.30;;;;;;;;;;5024982;28;20021;-84
2023/02/22 05:34:13;;;;;;;23.35;10.20;;;;;;;;;;5047011;28;20047;-83
2023/02/22 05:36:38;;;;;;;22.67;10.57;;;;;;;;;;5025997;28;20389;-83
2023/02/22 05:39:04;;;;;;;22.45;10.27;;;;;;;;;;5048267;28;20033;-82
2023/02/22 05:41:29;;;;;;;22.17;10.23;;;;;;;;;;5047269;28;20080;-83
2023/02/22 05:43:55;;;;;;;24.10;10.20;;;;;;;;;;5041145;28;20036;-84
2023/02/22 05:46:20;;;;;;;21.02;9.30;;;;;;;;;;5047366;28;20112;-83
2023/02/22 05:48:45;;;;;;;22.67;9.82;;;;;;;;;;5027609;28;20060;-82
2023/02/22 05:51:11;;;;;;;23.25;10.43;;;;;;;;;;5040908;28;20108;-83
2023/02/22 05:53:36;;;;;;;20.92;9.55;;;;;;;;;;5040406;28;20467;-83
2023/02/22 05:56:02;;;;;;;20.90;9.70;;;;;;;;;;5026598;28;20064;-83
2023/02/22 05:58:28;;;;;;;19.67;9.23;;;;;;;;;;5028319;28;20468;-83
2023/02/22 06:00:53;;;;;;;19.38;9.73;;;;;;;;;;5034189;28;20021;-84
2023/02/22 06:03:18;;;;;;;19.75;8.85;;;;;;;;;;5022865;28;20033;-83
2023/02/22 06:05:44;;;;;;;19.92;9.65;;;;;;;;;;5027996;28;20062;-83
2023/02/22 06:08:09;;;;;;;17.08;8.45;;;;;;;;;;5031809;28;20025;-83
2023/02/22 06:10:35;;;;;;;19.75;9.35;;;;;;;;;;5049759;28;20113;-83
2023/02/22 06:13:03;;;;;;;19.13;9.02;;;;;;;;;;5051384;28;20074;-83
2023/02/22 06:15:29;;;;;;;20.75;9.57;;;;;;;;;;5036129;28;20032;-84
2023/02/22 06:17:56;;;;;;;21.00;9.20;;;;;;;;;;5049174;28;20033;-82
2023/02/22 06:20:24;;;;;;;18.65;9.57;;;;;;;;;;5051578;28;20013;-83
2023/02/22 06:22:51;;;;;;;18.00;8.77;;;;;;;;;;5032161;28;20028;-84
2023/02/22 06:25:19;;;;;;;20.98;9.38;;;;;;;;;;5034405;28;20033;-84
2023/02/22 06:27:45;;;;;;;20.75;9.02;;;;;;;;;;5025301;28;20159;-83
2023/02/22 06:30:11;;;;;;;19.02;9.18;;;;;;;;;;5051169;28;20107;-83
2023/02/22 06:32:37;;;;;;;19.08;9.38;;;;;;;;;;5031621;28;20024;-81
2023/02/22 06:35:03;;;;;;;20.02;9.57;;;;;;;;;;5040328;28;21991;-83
2023/02/22 06:37:29;;;;;;;18.05;9.02;;;;;;;;;;5030205;28;20050;-84
2023/02/22 06:39:54;;;;;;;21.83;10.25;;;;;;;;;;5026658;28;20028;-83
2023/02/22 06:42:19;;;;;;;21.45;9.82;;;;;;;;;;5048814;28;20043;-83
2023/02/22 06:44:45;;;;;;;19.13;9.07;;;;;;;;;;5028713;28;20029;-82
2023/02/22 06:47:10;;;;;;;20.98;9.63;;;;;;;;;;5047708;28;20487;-84
2023/02/22 06:49:36;;;;;;;22.70;9.95;;;;;;;;;;5048524;28;20380;-83
2023/02/22 06:52:04;;;;;;;18.45;9.13;;;;;;;;;;5028114;28;20051;-83
2023/02/22 06:54:30;;;;;;;20.88;9.93;;;;;;;;;;5027864;28;20017;-82
2023/02/22 06:56:55;;;;;;;20.10;9.48;;;;;;;;;;5034684;28;20480;-83
2023/02/22 06:59:22;;;;;;;20.42;9.77;;;;;;;;;;5023611;28;20388;-83
2023/02/22 07:01:48;;;;;;;19.48;9.93;;;;;;;;;;5049094;28;20036;-83
2023/02/22 07:04:14;;;;;;;21.73;9.95;;;;;;;;;;5040496;28;20020;-80
2023/02/22 07:06:47;;;;;;;23.65;9.80;;;;;;;;;;5041777;28;20486;-83
2023/02/22 07:09:15;;;;;;;20.13;9.77;;;;;;;;;;5039001;28;20374;-82
2023/02/22 07:11:40;;;;;;;23.80;10.77;;;;;;;;;;5028111;28;20108;-83
2023/02/22 07:14:06;;;;;;;20.30;9.60;;;;;;;;;;5026725;28;20119;-83
2023/02/22 07:16:32;;;;;;;22.40;11.15;;;;;;;;;;5026700;28;20025;-83
2023/02/22 07:18:59;;;;;;;24.23;11.15;;;;;;;;;;5025429;28;20145;-83
2023/02/22 07:21:25;;;;;;;25.08;11.00;;;;;;;;;;5037063;28;20539;-83
2023/02/22 07:23:55;;;;;;;23.52;10.63;;;;;;;;;;5024270;28;20025;-83
2023/02/22 07:26:21;;;;;;;20.73;9.65;;;;;;;;;;5023936;28;20068;-83
2023/02/22 07:28:47;;;;;;;24.45;10.68;;;;;;;;;;5034939;28;20025;-83
2023/02/22 07:31:12;;;;;;;19.90;10.02;;;;;;;;;;5016650;28;20410;-81
2023/02/22 07:33:38;;;;;;;23.98;10.10;;;;;;;;;;5038072;28;20057;-83
2023/02/22 07:36:04;;;;;;;24.20;10.60;;;;;;;;;;5021923;28;20028;-81
2023/02/22 07:38:30;;;;;;;24.13;10.25;;;;;;;;;;5020024;28;20106;-82
2023/02/22 07:40:56;;;;;;;23.48;9.98;;;;;;;;;;5022015;28;20021;-83
2023/02/22 07:43:24;;;;;;;26.90;11.50;;;;;;;;;;5023809;28;20036;-83
2023/02/22 07:45:51;;;;;;;24.25;11.05;;;;;;;;;;5042809;28;20033;-83
2023/02/22 07:48:18;;;;;;;23.40;10.27;;;;;;;;;;5041878;28;20032;-83
2023/02/22 07:50:43;;;;;;;23.33;10.93;;;;;;;;;;5037790;28;20063;-82
2023/02/22 07:53:17;;;;;;;25.15;10.32;;;;;;;;;;5021743;28;20056;-83
2023/02/22 07:55:43;;;;;;;24.65;10.93;;;;;;;;;;5037888;28;20033;-82
2023/02/22 07:58:13;;;;;;;29.13;11.80;;;;;;;;;;5039744;28;20028;-82
2023/02/22 08:00:40;;;;;;;24.20;10.77;;;;;;;;;;5027741;28;20055;-83
2023/02/22 08:03:11;;;;;;;27.02;10.38;;;;;;;;;;5023988;28;20037;-83
2023/02/22 08:05:40;;;;;;;24.25;10.57;;;;;;;;;;5024155;28;20032;-83
2023/02/22 08:08:06;;;;;;;28.30;11.48;;;;;;;;;;5043851;28;20021;-83
2023/02/22 08:10:33;;;;;;;24.63;10.50;;;;;;;;;;5031844;28;20025;-83
2023/02/22 08:12:59;;;;;;;27.30;11.27;;;;;;;;;;5034439;28;20086;-83
2023/02/22 08:15:28;;;;;;;23.98;10.43;;;;;;;;;;5031052;28;20507;-83
2023/02/22 08:17:54;;;;;;;24.92;10.45;;;;;;;;;;5045860;28;20039;-83
2023/02/22 08:20:20;;;;;;;24.58;10.48;;;;;;;;;;5032197;28;20024;-83
2023/02/22 08:22:46;;;;;;;24.67;10.73;;;;;;;;;;5019487;28;20036;-83
2023/02/22 08:25:14;;;;;;;26.23;11.32;;;;;;;;;;5049883;28;20530;-83
2023/02/22 08:27:40;;;;;;;22.45;10.55;;;;;;;;;;5042490;28;20033;-83
2023/02/22 08:30:06;;;;;;;21.98;9.40;;;;;;;;;;5053418;28;20022;-83
2023/02/22 08:32:32;;;;;;;27.48;11.07;;;;;;;;;;5032206;28;20449;-83
2023/02/22 08:34:58;;;;;;;23.88;11.15;;;;;;;;;;5045303;28;20116;-84
2023/02/22 08:37:23;;;;;;;25.63;10.77;;;;;;;;;;5053115;28;20039;-84
2023/02/22 08:39:48;;;;;;;27.33;11.05;;;;;;;;;;5025784;28;20540;-83
2023/02/22 08:42:14;;;;;;;25.35;11.00;;;;;;;;;;5032665;28;20111;-84
2023/02/22 08:44:39;;;;;;;26.83;11.90;;;;;;;;;;5034809;28;20083;-83
2023/02/22 08:47:05;;;;;;;24.83;10.57;;;;;;;;;;5037664;28;20036;-83
2023/02/22 08:49:32;;;;;;;26.50;11.63;;;;;;;;;;5050236;28;20515;-83
2023/02/22 08:51:57;;;;;;;30.40;12.63;;;;;;;;;;5052957;28;20033;-84
2023/02/22 08:54:23;;;;;;;27.25;11.02;;;;;;;;;;5046196;28;20032;-83
2023/02/22 08:56:49;;;;;;;27.52;11.57;;;;;;;;;;5031562;28;20444;-83
2023/02/22 08:59:15;;;;;;;28.05;11.95;;;;;;;;;;5045519;28;20656;-82
2023/02/22 09:01:40;;;;;;;31.65;13.15;;;;;;;;;;5009563;28;20048;-83
2023/02/22 09:04:05;;;;;;;33.63;13.63;;;;;;;;;;5048732;28;20032;-83
2023/02/22 09:06:31;;;;;;;29.52;12.57;;;;;;;;;;5048957;28;20028;-83
2023/02/22 09:08:56;;;;;;;31.40;12.50;;;;;;;;;;5040838;28;20048;-84
2023/02/22 09:11:22;;;;;;;29.00;10.98;;;;;;;;;;5048635;28;20029;-84
2023/02/22 09:13:47;;;;;;;28.63;11.63;;;;;;;;;;5031663;28;20148;-83
2023/02/22 09:16:13;;;;;;;26.52;11.25;;;;;;;;;;5019152;28;20029;-82
2023/02/22 09:18:38;;;;;;;24.65;10.73;;;;;;;;;;5024020;28;20033;-83
2023/02/22 09:21:04;;;;;;;28.17;11.32;;;;;;;;;;5046281;28;20033;-83
2023/02/22 09:23:30;;;;;;;28.05;12.10;;;;;;;;;;5050645;28;20473;-83
2023/02/22 09:25:55;;;;;;;32.35;12.60;;;;;;;;;;5035128;28;20029;-83
2023/02/22 09:28:21;;;;;;;29.20;12.05;;;;;;;;;;5046016;28;20103;-83
2023/02/22 09:30:46;;;;;;;34.17;13.10;;;;;;;;;;5046029;28;20029;-83
2023/02/22 09:33:15;;;;;;;28.63;12.73;;;;;;;;;;5049600;28;20096;-83
2023/02/22 09:35:45;;;;;;;30.10;12.93;;;;;;;;;;5023357;28;20464;-83
2023/02/22 09:38:12;;;;;;;27.60;11.68;;;;;;;;;;5047224;28;20495;-83
2023/02/22 09:40:43;;;;;;;28.45;12.18;;;;;;;;;;5049820;28;20538;-83
2023/02/22 09:43:43;;;;;;;36.55;15.73;;;;;;;;;;5029210;28;20078;-83
2023/02/22 09:46:12;;;;;;;33.90;17.10;;;;;;;;;;5029411;28;20157;-84
2023/02/22 09:48:56;;;;;;;30.50;12.43;;;;;;;;;;5033537;28;20025;-84
2023/02/22 09:51:26;;;;;;;33.08;13.25;;;;;;;;;;5049237;28;21972;-83
2023/02/22 09:53:56;;;;;;;35.38;14.00;;;;;;;;;;5026030;28;20405;-82
2023/02/22 09:56:25;;;;;;;27.17;11.52;;;;;;;;;;5023785;28;20032;-83
2023/02/22 09:58:55;;;;;;;30.30;13.20;;;;;;;;;;5047300;28;20021;-83
2023/02/22 10:01:28;;;;;;;32.63;11.82;;;;;;;;;;5029967;28;20039;-83
2023/02/22 10:04:04;;;;;;;30.58;12.13;;;;;;;;;;5031844;28;20021;-84
2023/02/22 10:06:32;;;;;;;30.80;12.80;;;;;;;;;;5032348;28;20396;-83
2023/02/22 10:09:06;;;;;;;32.92;12.15;;;;;;;;;;5051891;28;20039;-79
2023/02/22 10:11:41;;;;;;;30.98;13.43;;;;;;;;;;5050831;28;20103;-84
2023/02/22 10:14:16;;;;;;;30.52;12.73;;;;;;;;;;5048630;28;20027;-83
2023/02/22 10:17:01;;;;;;;30.17;12.65;;;;;;;;;;5032684;28;20481;-83
2023/02/22 10:19:49;;;;;;;30.15;11.23;;;;;;;;;;5029530;28;20104;-84
2023/02/22 10:22:29;;;;;;;32.13;12.20;;;;;;;;;;5033180;28;20041;-83
2023/02/22 10:25:03;;;;;;;27.73;12.50;;;;;;;;;;5049574;28;20043;-83
2023/02/22 10:27:38;;;;;;;30.33;12.15;;;;;;;;;;5029304;28;20075;-80
2023/02/22 10:30:20;;;;;;;26.25;11.40;;;;;;;;;;5032809;28;20273;-84
2023/02/22 10:32:53;;;;;;;27.00;11.85;;;;;;;;;;5028033;28;20162;-83
2023/02/22 10:35:25;;;;;;;27.75;11.55;;;;;;;;;;5026538;28;20053;-83
2023/02/22 10:37:58;;;;;;;24.30;11.13;;;;;;;;;;5031797;28;20086;-83
2023/02/22 10:40:34;;;;;;;24.20;10.90;;;;;;;;;;5047677;28;20021;-83
2023/02/22 10:43:05;;;;;;;25.42;11.23;;;;;;;;;;5042745;28;20067;-84
2023/02/22 10:45:32;;;;;;;25.15;11.88;;;;;;;;;;5046437;28;20086;-84
2023/02/22 10:48:00;;;;;;;24.45;10.70;;;;;;;;;;5046596;28;20029;-84
2023/02/22 10:50:28;;;;;;;24.52;11.52;;;;;;;;;;5030685;28;20031;-84
2023/02/22 10:52:54;;;;;;;24.95;11.20;;;;;;;;;;5025558;28;20748;-83
2023/02/22 10:55:20;;;;;;;26.77;11.75;;;;;;;;;;5032198;28;20032;-83
2023/02/22 10:57:49;;;;;;;24.33;11.10;;;;;;;;;;5046543;28;20163;-84
2023/02/22 11:00:28;;;;;;;24.02;11.98;;;;;;;;;;5047298;28;20067;-84
2023/02/22 11:03:01;;;;;;;27.10;12.27;;;;;;;;;;5030177;28;20785;-84
2023/02/22 11:05:38;;;;;;;21.33;10.77;;;;;;;;;;5042276;28;20081;-82
2023/02/22 11:08:24;;;;;;;22.77;10.50;;;;;;;;;;5032100;28;20258;-84
2023/02/22 11:10:53;;;;;;;26.17;11.45;;;;;;;;;;5047512;28;20064;-84
2023/02/22 11:13:28;;;;;;;21.63;10.88;;;;;;;;;;5035368;28;20029;-81
2023/02/22 11:16:16;;;;;;;21.25;10.45;;;;;;;;;;5027386;28;20025;-80
2023/02/22 11:18:41;;;;;;;19.58;9.38;;;;;;;;;;5041025;28;20035;-84
2023/02/22 11:21:12;;;;;;;22.48;10.80;;;;;;;;;;5037343;28;20017;-80
2023/02/22 11:23:40;;;;;;;23.20;10.90;;;;;;;;;;5020289;28;20036;-84
2023/02/22 11:26:06;;;;;;;21.80;11.00;;;;;;;;;;5030588;28;20032;-84
2023/02/22 11:28:32;;;;;;;23.38;11.32;;;;;;;;;;5021014;28;20352;-83
2023/02/22 11:31:20;;;;;;;22.90;10.23;;;;;;;;;;5021438;28;20032;-81
2023/02/22 11:33:56;;;;;;;21.50;10.63;;;;;;;;;;5021548;28;20032;-83
2023/02/22 11:36:40;;;;;;;25.92;11.38;;;;;;;;;;5026294;28;20085;-83
2023/02/22 11:39:22;;;;;;;21.48;10.55;;;;;;;;;;5026332;28;20060;-83
2023/02/22 11:41:48;;;;;;;21.30;11.32;;;;;;;;;;5023070;28;20094;-82
2023/02/22 11:44:31;;;;;;;22.08;10.88;;;;;;;;;;5037870;28;20070;-84
2023/02/22 11:47:05;;;;;;;21.03;9.90;;;;;;;;;;5036962;28;20027;-83
2023/02/22 11:49:37;;;;;;;22.52;10.93;;;;;;;;;;5033923;28;20021;-84
2023/02/22 11:52:11;;;;;;;21.77;11.43;;;;;;;;;;5036757;28;20029;-81
2023/02/22 11:54:51;;;;;;;22.50;11.00;;;;;;;;;;5020821;28;20048;-83
2023/02/22 11:57:50;;;;;;;18.80;9.98;;;;;;;;;;5026290;28;20120;-83
2023/02/22 12:00:44;;;;;;;23.05;10.75;;;;;;;;;;5039458;28;20080;-83
2023/02/22 12:03:25;;;;;;;25.23;10.57;;;;;;;;;;5033873;28;20040;-81
2023/02/22 12:05:58;;;;;;;21.45;10.82;;;;;;;;;;5019142;28;20040;-81
2023/02/22 12:08:29;;;;;;;21.52;12.07;;;;;;;;;;5021929;28;20162;-82
2023/02/22 12:11:19;;;;;;;19.77;10.35;;;;;;;;;;5034934;28;20033;-81
2023/02/22 12:13:50;;;;;;;19.52;10.48;;;;;;;;;;5036038;28;20025;-83
2023/02/22 12:16:27;;;;;;;22.35;10.43;;;;;;;;;;5013919;28;20059;-83
2023/02/22 12:19:20;;;;;;;19.08;9.93;;;;;;;;;;5014474;28;20060;-84
2023/02/22 12:21:54;;;;;;;18.83;10.00;;;;;;;;;;5015235;28;20480;-83
2023/02/22 12:24:26;;;;;;;21.75;10.02;;;;;;;;;;5019780;28;20037;-83
2023/02/22 12:27:26;;;;;;;22.73;10.27;;;;;;;;;;5033561;28;20022;-84
2023/02/22 12:30:04;;;;;;;18.65;9.77;;;;;;;;;;5034116;28;20590;-84
2023/02/22 12:32:44;;;;;;;18.83;9.68;;;;;;;;;;5032492;28;20029;-83
2023/02/22 12:35:18;;;;;;;18.95;10.07;;;;;;;;;;5037724;28;20314;-84
2023/02/22 12:38:00;;;;;;;17.63;9.32;;;;;;;;;;5038165;28;20025;-83
2023/02/22 12:40:34;;;;;;;17.20;9.30;;;;;;;;;;5034644;28;20064;-83
2023/02/22 12:43:15;;;;;;;18.20;9.68;;;;;;;;;;5020841;28;20052;-84
2023/02/22 12:45:47;;;;;;;19.02;9.73;;;;;;;;;;5033830;28;20056;-82
2023/02/22 12:48:39;;;;;;;16.97;9.07;;;;;;;;;;5034376;28;20496;-84
2023/02/22 12:51:33;;;;;;;17.63;9.85;;;;;;;;;;5008697;28;20045;-82
2023/02/22 12:54:19;;;;;;;14.55;8.73;;;;;;;;;;5000489;28;20028;-82
2023/02/22 12:57:08;;;;;;;15.65;9.57;;;;;;;;;;5021225;28;20522;-83
2023/02/22 12:59:52;;;;;;;15.07;8.93;;;;;;;;;;5017813;28;21002;-84
2023/02/22 13:02:27;;;;;;;14.73;8.82;;;;;;;;;;5036739;28;20476;-81
2023/02/22 13:04:53;;;;;;;16.38;8.98;;;;;;;;;;5034002;28;20508;-81
2023/02/22 13:07:28;;;;;;;17.65;9.35;;;;;;;;;;5017259;28;20083;-83
2023/02/22 13:10:06;;;;;;;17.95;9.40;;;;;;;;;;5036765;28;20043;-83
2023/02/22 13:12:45;;;;;;;15.68;9.13;;;;;;;;;;5041471;28;20223;-83
2023/02/22 13:15:11;;;;;;;16.75;9.40;;;;;;;;;;5039835;28;20552;-82
2023/02/22 13:18:09;;;;;;;16.75;9.80;;;;;;;;;;5021337;28;20138;-82
2023/02/22 13:20:37;;;;;;;14.65;9.75;;;;;;;;;;5020207;28;20563;-83
2023/02/22 13:23:31;;;;;;;16.42;9.38;;;;;;;;;;5045695;28;20519;-81
2023/02/22 13:26:23;;;;;;;17.95;9.60;;;;;;;;;;5047025;28;20024;-84
2023/02/22 13:29:08;;;;;;;17.13;9.77;;;;;;;;;;5022000;28;20061;-81
2023/02/22 13:31:52;;;;;;;17.15;9.30;;;;;;;;;;5033557;28;20033;-84
2023/02/22 13:34:23;;;;;;;17.33;9.48;;;;;;;;;;5042163;28;20099;-83
2023/02/22 13:37:16;;;;;;;15.43;9.35;;;;;;;;;;5021551;28;20032;-84
2023/02/22 13:40:08;;;;;;;20.77;10.00;;;;;;;;;;5007777;28;20051;-82
2023/02/22 13:42:49;;;;;;;17.08;9.88;;;;;;;;;;5007356;28;20489;-83
2023/02/22 13:45:54;;;;;;;15.27;9.25;;;;;;;;;;5024607;28;20388;-83
2023/02/22 13:48:51;;;;;;;15.57;9.07;;;;;;;;;;5035569;28;20036;-83
2023/02/22 13:51:37;;;;;;;14.48;8.77;;;;;;;;;;5022691;28;20371;-84
2023/02/22 13:54:13;;;;;;;16.77;10.25;;;;;;;;;;5038259;28;20026;-83
2023/02/22 13:56:44;;;;;;;17.98;10.00;;;;;;;;;;5040265;28;20025;-83
2023/02/22 13:59:35;;;;;;;17.48;10.82;;;;;;;;;;5031043;28;20043;-83
2023/02/22 14:02:03;;;;;;;16.45;9.82;;;;;;;;;;5036664;28;20033;-82
2023/02/22 14:04:28;;;;;;;17.52;10.50;;;;;;;;;;5038048;28;20127;-82
2023/02/22 14:06:59;;;;;;;16.83;9.52;;;;;;;;;;5021584;28;20113;-83
2023/02/22 14:09:49;;;;;;;15.70;10.05;;;;;;;;;;5039981;28;20430;-82
2023/02/22 14:12:32;;;;;;;17.33;10.77;;;;;;;;;;5019428;28;20602;-83
2023/02/22 14:15:09;;;;;;;17.48;10.18;;;;;;;;;;5023401;28;20033;-83
2023/02/22 14:17:58;;;;;;;20.48;10.93;;;;;;;;;;5019808;28;20044;-81
2023/02/22 14:20:31;;;;;;;20.98;11.40;;;;;;;;;;5014323;28;20500;-84
2023/02/22 14:23:17;;;;;;;16.85;10.98;;;;;;;;;;5016626;28;20036;-84
2023/02/22 14:25:43;;;;;;;20.55;11.85;;;;;;;;;;5037216;28;20028;-84
2023/02/22 14:28:37;;;;;;;20.80;13.52;;;;;;;;;;5036399;28;20037;-83
2023/02/22 14:31:12;;;;;;;20.10;13.43;;;;;;;;;;5030862;28;20476;-83
2023/02/22 14:33:56;;;;;;;20.02;13.40;;;;;;;;;;5021720;28;20037;-83
2023/02/22 14:36:31;;;;;;;20.73;12.90;;;;;;;;;;5040359;28;20369;-82
2023/02/22 14:39:05;;;;;;;21.35;12.05;;;;;;;;;;5037602;28;20032;-81
2023/02/22 14:41:32;;;;;;;18.70;12.23;;;;;;;;;;5039013;28;20443;-82
2023/02/22 14:44:03;;;;;;;20.92;14.45;;;;;;;;;;5026870;28;20060;-83
2023/02/22 14:46:33;;;;;;;20.65;13.38;;;;;;;;;;5017168;28;20110;-82
2023/02/22 14:49:04;;;;;;;22.10;14.60;;;;;;;;;;5020247;28;20568;-84